sensor_id;sensor_type;location;lat;lon;timestamp;P1;durP1;ratioP1;P2;durP2;ratioP2
5674;SDS011;2860;54.284;10.158;2024-01-15T00:02:21;4.78;;;1.83;;
5674;SDS011;2860;54.284;10.158;2024-01-15T00:04:47;8.23;;;1.88;;
5674;SDS011;2860;54.284;10.158;2024-01-15T00:07:12;10.88;;;1.77;;
5674;SDS011;2860;54.284;10.158;2024-01-15T00:09:39;12.65;;;1.73;;
5674;SDS011;2860;54.284;10.158;2024-01-15T00:12:05;10.18;;;1.98;;
5674;SDS011;2860;54.284;10.158;2024-01-15T00:14:31;5.15;;;1.83;;
5674;SDS011;2860;54.284;10.158;2024-01-15T00:16:56;5.95;;;1.02;;
5674;SDS011;2860;54.284;10.158;2024-01-15T00:19:22;4.13;;;1.23;;
5674;SDS011;2860;54.284;10.158;2024-01-15T00:21:48;8.40;;;1.27;;
5674;SDS011;2860;54.284;10.158;2024-01-15T00:24:14;2.40;;;1.90;;
5674;SDS011;2860;54.284;10.158;2024-01-15T00:26:40;4.80;;;0.90;;
5674;SDS011;2860;54.284;10.158;2024-01-15T00:29:08;6.88;;;1.00;;
5674;SDS011;2860;54.284;10.158;2024-01-15T00:31:34;5.00;;;1.70;;
5674;SDS011;2860;54.284;10.158;2024-01-15T00:34:00;4.30;;;1.27;;
5674;SDS011;2860;54.284;10.158;2024-01-15T00:36:25;4.10;;;1.73;;
5674;SDS011;2860;54.284;10.158;2024-01-15T00:38:51;2.28;;;1.08;;
5674;SDS011;2860;54.284;10.158;2024-01-15T00:41:17;10.32;;;1.60;;
5674;SDS011;2860;54.284;10.158;2024-01-15T00:43:44;6.65;;;2.00;;
5674;SDS011;2860;54.284;10.158;2024-01-15T00:46:10;8.20;;;2.63;;
5674;SDS011;2860;54.284;10.158;2024-01-15T00:48:35;7.07;;;2.33;;
5674;SDS011;2860;54.284;10.158;2024-01-15T00:51:01;9.73;;;1.60;;
5674;SDS011;2860;54.284;10.158;2024-01-15T00:53:27;9.18;;;1.73;;
5674;SDS011;2860;54.284;10.158;2024-01-15T00:55:52;15.48;;;2.80;;
5674;SDS011;2860;54.284;10.158;2024-01-15T00:58:18;15.77;;;2.50;;
5674;SDS011;2860;54.284;10.158;2024-01-15T01:00:44;28.30;;;2.85;;
5674;SDS011;2860;54.284;10.158;2024-01-15T01:03:09;8.73;;;2.75;;
5674;SDS011;2860;54.284;10.158;2024-01-15T01:05:35;11.73;;;2.45;;
5674;SDS011;2860;54.284;10.158;2024-01-15T01:08:00;11.98;;;2.38;;
5674;SDS011;2860;54.284;10.158;2024-01-15T01:10:27;12.63;;;2.35;;
5674;SDS011;2860;54.284;10.158;2024-01-15T01:12:52;10.73;;;2.63;;
5674;SDS011;2860;54.284;10.158;2024-01-15T01:15:18;22.42;;;2.47;;
5674;SDS011;2860;54.284;10.158;2024-01-15T01:17:44;17.02;;;2.40;;
5674;SDS011;2860;54.284;10.158;2024-01-15T01:20:09;14.68;;;2.33;;
5674;SDS011;2860;54.284;10.158;2024-01-15T01:22:35;20.20;;;2.72;;
5674;SDS011;2860;54.284;10.158;2024-01-15T01:25:01;21.25;;;2.20;;
5674;SDS011;2860;54.284;10.158;2024-01-15T01:27:27;17.30;;;2.30;;
5674;SDS011;2860;54.284;10.158;2024-01-15T01:29:53;35.28;;;3.88;;
5674;SDS011;2860;54.284;10.158;2024-01-15T01:32:18;11.00;;;2.30;;
5674;SDS011;2860;54.284;10.158;2024-01-15T01:34:44;19.90;;;3.33;;
5674;SDS011;2860;54.284;10.158;2024-01-15T01:37:10;10.30;;;2.83;;
5674;SDS011;2860;54.284;10.158;2024-01-15T01:39:38;16.33;;;1.85;;
5674;SDS011;2860;54.284;10.158;2024-01-15T01:42:04;18.48;;;2.92;;
5674;SDS011;2860;54.284;10.158;2024-01-15T01:44:29;21.20;;;3.80;;
5674;SDS011;2860;54.284;10.158;2024-01-15T01:46:55;12.90;;;2.40;;
5674;SDS011;2860;54.284;10.158;2024-01-15T01:49:22;13.63;;;2.90;;
5674;SDS011;2860;54.284;10.158;2024-01-15T01:51:48;15.27;;;3.10;;
5674;SDS011;2860;54.284;10.158;2024-01-15T01:54:14;24.88;;;2.85;;
5674;SDS011;2860;54.284;10.158;2024-01-15T01:56:40;23.15;;;3.63;;
5674;SDS011;2860;54.284;10.158;2024-01-15T01:59:07;29.05;;;3.38;;
5674;SDS011;2860;54.284;10.158;2024-01-15T02:01:36;19.92;;;3.75;;
5674;SDS011;2860;54.284;10.158;2024-01-15T02:04:01;21.52;;;3.58;;
5674;SDS011;2860;54.284;10.158;2024-01-15T02:06:28;15.93;;;1.92;;
5674;SDS011;2860;54.284;10.158;2024-01-15T02:08:54;19.75;;;2.80;;
5674;SDS011;2860;54.284;10.158;2024-01-15T02:11:20;29.88;;;3.60;;
5674;SDS011;2860;54.284;10.158;2024-01-15T02:13:46;13.07;;;3.30;;
5674;SDS011;2860;54.284;10.158;2024-01-15T02:16:12;13.65;;;3.03;;
5674;SDS011;2860;54.284;10.158;2024-01-15T02:18:41;25.02;;;3.13;;
5674;SDS011;2860;54.284;10.158;2024-01-15T02:21:07;19.15;;;3.22;;
5674;SDS011;2860;54.284;10.158;2024-01-15T02:23:33;12.48;;;2.83;;
5674;SDS011;2860;54.284;10.158;2024-01-15T02:25:59;14.63;;;2.38;;
5674;SDS011;2860;54.284;10.158;2024-01-15T02:28:24;10.60;;;2.42;;
5674;SDS011;2860;54.284;10.158;2024-01-15T02:30:50;14.13;;;2.00;;
5674;SDS011;2860;54.284;10.158;2024-01-15T02:33:15;15.50;;;2.72;;
5674;SDS011;2860;54.284;10.158;2024-01-15T02:35:41;10.05;;;2.50;;
5674;SDS011;2860;54.284;10.158;2024-01-15T02:38:06;17.15;;;2.33;;
5674;SDS011;2860;54.284;10.158;2024-01-15T02:40:33;12.40;;;2.50;;
5674;SDS011;2860;54.284;10.158;2024-01-15T02:42:59;6.20;;;1.55;;
5674;SDS011;2860;54.284;10.158;2024-01-15T02:45:25;12.55;;;2.25;;
5674;SDS011;2860;54.284;10.158;2024-01-15T02:47:50;5.97;;;1.67;;
5674;SDS011;2860;54.284;10.158;2024-01-15T02:50:16;22.70;;;3.25;;
5674;SDS011;2860;54.284;10.158;2024-01-15T02:52:41;10.73;;;1.85;;
5674;SDS011;2860;54.284;10.158;2024-01-15T02:55:07;13.65;;;3.35;;
5674;SDS011;2860;54.284;10.158;2024-01-15T02:57:33;14.60;;;2.78;;
5674;SDS011;2860;54.284;10.158;2024-01-15T02:59:59;10.18;;;1.77;;
5674;SDS011;2860;54.284;10.158;2024-01-15T03:02:24;11.40;;;2.92;;
5674;SDS011;2860;54.284;10.158;2024-01-15T03:04:50;7.05;;;2.13;;
5674;SDS011;2860;54.284;10.158;2024-01-15T03:07:16;19.10;;;3.05;;
5674;SDS011;2860;54.284;10.158;2024-01-15T03:09:41;19.40;;;1.90;;
5674;SDS011;2860;54.284;10.158;2024-01-15T03:12:07;16.30;;;3.15;;
5674;SDS011;2860;54.284;10.158;2024-01-15T03:14:32;12.20;;;3.42;;
5674;SDS011;2860;54.284;10.158;2024-01-15T03:16:58;8.35;;;2.22;;
5674;SDS011;2860;54.284;10.158;2024-01-15T03:19:25;7.05;;;2.22;;
5674;SDS011;2860;54.284;10.158;2024-01-15T03:21:51;15.90;;;2.50;;
5674;SDS011;2860;54.284;10.158;2024-01-15T03:24:16;6.82;;;1.50;;
5674;SDS011;2860;54.284;10.158;2024-01-15T03:26:42;14.15;;;2.53;;
5674;SDS011;2860;54.284;10.158;2024-01-15T03:29:07;13.10;;;2.13;;
5674;SDS011;2860;54.284;10.158;2024-01-15T03:31:33;10.98;;;1.80;;
5674;SDS011;2860;54.284;10.158;2024-01-15T03:33:58;12.00;;;2.00;;
5674;SDS011;2860;54.284;10.158;2024-01-15T03:36:24;14.77;;;1.90;;
5674;SDS011;2860;54.284;10.158;2024-01-15T03:38:49;10.48;;;2.33;;
5674;SDS011;2860;54.284;10.158;2024-01-15T03:41:15;6.82;;;1.40;;
5674;SDS011;2860;54.284;10.158;2024-01-15T03:43:40;9.88;;;1.50;;
5674;SDS011;2860;54.284;10.158;2024-01-15T03:46:06;6.95;;;1.23;;
5674;SDS011;2860;54.284;10.158;2024-01-15T03:48:34;7.45;;;2.22;;
5674;SDS011;2860;54.284;10.158;2024-01-15T03:51:00;13.30;;;1.50;;
5674;SDS011;2860;54.284;10.158;2024-01-15T03:53:26;8.75;;;2.55;;
5674;SDS011;2860;54.284;10.158;2024-01-15T03:55:51;10.82;;;2.47;;
5674;SDS011;2860;54.284;10.158;2024-01-15T03:58:17;10.02;;;2.20;;
5674;SDS011;2860;54.284;10.158;2024-01-15T04:00:43;16.63;;;1.80;;
5674;SDS011;2860;54.284;10.158;2024-01-15T04:03:09;9.65;;;1.67;;
5674;SDS011;2860;54.284;10.158;2024-01-15T04:05:34;6.43;;;1.70;;
5674;SDS011;2860;54.284;10.158;2024-01-15T04:08:03;12.82;;;2.10;;
5674;SDS011;2860;54.284;10.158;2024-01-15T04:10:31;6.22;;;2.00;;
5674;SDS011;2860;54.284;10.158;2024-01-15T04:12:56;4.13;;;2.38;;
5674;SDS011;2860;54.284;10.158;2024-01-15T04:15:24;10.50;;;2.25;;
5674;SDS011;2860;54.284;10.158;2024-01-15T04:17:50;8.02;;;1.83;;
5674;SDS011;2860;54.284;10.158;2024-01-15T04:20:15;6.65;;;2.20;;
5674;SDS011;2860;54.284;10.158;2024-01-15T04:22:41;8.95;;;1.55;;
5674;SDS011;2860;54.284;10.158;2024-01-15T04:25:06;11.40;;;2.10;;
5674;SDS011;2860;54.284;10.158;2024-01-15T04:27:32;15.85;;;2.28;;
5674;SDS011;2860;54.284;10.158;2024-01-15T04:29:57;6.63;;;1.92;;
5674;SDS011;2860;54.284;10.158;2024-01-15T04:32:23;12.25;;;2.10;;
5674;SDS011;2860;54.284;10.158;2024-01-15T04:34:48;15.43;;;2.10;;
5674;SDS011;2860;54.284;10.158;2024-01-15T04:37:14;5.82;;;1.17;;
5674;SDS011;2860;54.284;10.158;2024-01-15T04:39:39;7.85;;;2.25;;
5674;SDS011;2860;54.284;10.158;2024-01-15T04:42:05;9.52;;;2.47;;
5674;SDS011;2860;54.284;10.158;2024-01-15T04:44:30;10.07;;;1.77;;
5674;SDS011;2860;54.284;10.158;2024-01-15T04:46:56;7.30;;;1.85;;
5674;SDS011;2860;54.284;10.158;2024-01-15T04:49:21;10.95;;;2.47;;
5674;SDS011;2860;54.284;10.158;2024-01-15T04:51:47;9.93;;;2.38;;
5674;SDS011;2860;54.284;10.158;2024-01-15T04:54:13;6.22;;;1.98;;
5674;SDS011;2860;54.284;10.158;2024-01-15T04:56:42;10.15;;;2.67;;
5674;SDS011;2860;54.284;10.158;2024-01-15T04:59:08;16.38;;;2.47;;
5674;SDS011;2860;54.284;10.158;2024-01-15T05:01:33;9.98;;;2.03;;
5674;SDS011;2860;54.284;10.158;2024-01-15T05:03:59;15.85;;;1.67;;
5674;SDS011;2860;54.284;10.158;2024-01-15T05:06:25;14.15;;;2.40;;
5674;SDS011;2860;54.284;10.158;2024-01-15T05:08:50;17.23;;;2.47;;
5674;SDS011;2860;54.284;10.158;2024-01-15T05:11:16;5.10;;;1.70;;
5674;SDS011;2860;54.284;10.158;2024-01-15T05:13:41;8.80;;;2.38;;
5674;SDS011;2860;54.284;10.158;2024-01-15T05:16:07;9.05;;;1.48;;
5674;SDS011;2860;54.284;10.158;2024-01-15T05:18:32;4.90;;;1.67;;
5674;SDS011;2860;54.284;10.158;2024-01-15T05:20:58;7.50;;;2.03;;
5674;SDS011;2860;54.284;10.158;2024-01-15T05:23:23;11.18;;;2.05;;
5674;SDS011;2860;54.284;10.158;2024-01-15T05:25:49;6.80;;;1.90;;
5674;SDS011;2860;54.284;10.158;2024-01-15T05:28:15;6.85;;;2.08;;
5674;SDS011;2860;54.284;10.158;2024-01-15T05:30:40;6.00;;;1.77;;
5674;SDS011;2860;54.284;10.158;2024-01-15T05:33:06;9.95;;;1.75;;
5674;SDS011;2860;54.284;10.158;2024-01-15T05:35:32;7.60;;;2.35;;
5674;SDS011;2860;54.284;10.158;2024-01-15T05:37:58;9.95;;;1.60;;
5674;SDS011;2860;54.284;10.158;2024-01-15T05:40:24;18.10;;;2.17;;
5674;SDS011;2860;54.284;10.158;2024-01-15T05:42:49;10.38;;;1.70;;
5674;SDS011;2860;54.284;10.158;2024-01-15T05:45:15;4.85;;;1.58;;
5674;SDS011;2860;54.284;10.158;2024-01-15T05:47:41;7.40;;;2.83;;
5674;SDS011;2860;54.284;10.158;2024-01-15T05:50:06;5.50;;;1.83;;
5674;SDS011;2860;54.284;10.158;2024-01-15T05:52:32;10.15;;;2.55;;
5674;SDS011;2860;54.284;10.158;2024-01-15T05:54:57;8.10;;;2.15;;
5674;SDS011;2860;54.284;10.158;2024-01-15T05:57:23;7.97;;;1.65;;
5674;SDS011;2860;54.284;10.158;2024-01-15T05:59:49;9.15;;;1.83;;
5674;SDS011;2860;54.284;10.158;2024-01-15T06:02:14;7.85;;;1.88;;
5674;SDS011;2860;54.284;10.158;2024-01-15T06:04:40;15.35;;;2.90;;
5674;SDS011;2860;54.284;10.158;2024-01-15T06:07:05;10.75;;;2.42;;
5674;SDS011;2860;54.284;10.158;2024-01-15T06:09:31;4.38;;;1.42;;
5674;SDS011;2860;54.284;10.158;2024-01-15T06:11:57;5.35;;;2.03;;
5674;SDS011;2860;54.284;10.158;2024-01-15T06:14:22;5.60;;;1.38;;
5674;SDS011;2860;54.284;10.158;2024-01-15T06:16:47;4.80;;;1.35;;
5674;SDS011;2860;54.284;10.158;2024-01-15T06:19:14;3.28;;;1.48;;
5674;SDS011;2860;54.284;10.158;2024-01-15T06:21:39;4.20;;;1.40;;
5674;SDS011;2860;54.284;10.158;2024-01-15T06:24:05;8.35;;;2.00;;
5674;SDS011;2860;54.284;10.158;2024-01-15T06:26:31;5.22;;;1.75;;
5674;SDS011;2860;54.284;10.158;2024-01-15T06:28:56;9.70;;;1.95;;
5674;SDS011;2860;54.284;10.158;2024-01-15T06:31:22;12.48;;;1.85;;
5674;SDS011;2860;54.284;10.158;2024-01-15T06:33:47;8.95;;;1.70;;
5674;SDS011;2860;54.284;10.158;2024-01-15T06:36:14;7.85;;;1.80;;
5674;SDS011;2860;54.284;10.158;2024-01-15T06:38:41;4.82;;;1.60;;
5674;SDS011;2860;54.284;10.158;2024-01-15T06:41:08;14.15;;;2.55;;
5674;SDS011;2860;54.284;10.158;2024-01-15T06:43:33;5.05;;;1.65;;
5674;SDS011;2860;54.284;10.158;2024-01-15T06:45:59;8.18;;;1.50;;
5674;SDS011;2860;54.284;10.158;2024-01-15T06:48:24;6.55;;;1.92;;
5674;SDS011;2860;54.284;10.158;2024-01-15T06:50:50;5.60;;;1.48;;
5674;SDS011;2860;54.284;10.158;2024-01-15T06:53:15;4.07;;;1.60;;
5674;SDS011;2860;54.284;10.158;2024-01-15T06:55:41;7.78;;;2.92;;
5674;SDS011;2860;54.284;10.158;2024-01-15T06:58:06;4.55;;;1.45;;
5674;SDS011;2860;54.284;10.158;2024-01-15T07:00:32;5.22;;;1.40;;
5674;SDS011;2860;54.284;10.158;2024-01-15T07:02:58;5.67;;;1.93;;
5674;SDS011;2860;54.284;10.158;2024-01-15T07:05:23;15.05;;;2.17;;
5674;SDS011;2860;54.284;10.158;2024-01-15T07:07:49;5.45;;;2.17;;
5674;SDS011;2860;54.284;10.158;2024-01-15T07:10:15;6.68;;;1.88;;
5674;SDS011;2860;54.284;10.158;2024-01-15T07:12:44;4.55;;;1.50;;
5674;SDS011;2860;54.284;10.158;2024-01-15T07:15:10;6.22;;;1.60;;
5674;SDS011;2860;54.284;10.158;2024-01-15T07:17:36;4.03;;;1.38;;
5674;SDS011;2860;54.284;10.158;2024-01-15T07:20:04;6.90;;;1.75;;
5674;SDS011;2860;54.284;10.158;2024-01-15T07:22:34;10.45;;;2.15;;
5674;SDS011;2860;54.284;10.158;2024-01-15T07:25:02;1.38;;;1.33;;
5674;SDS011;2860;54.284;10.158;2024-01-15T07:27:29;10.13;;;1.98;;
5674;SDS011;2860;54.284;10.158;2024-01-15T07:29:56;4.00;;;1.83;;
5674;SDS011;2860;54.284;10.158;2024-01-15T07:32:21;5.05;;;1.52;;
5674;SDS011;2860;54.284;10.158;2024-01-15T07:34:47;13.35;;;1.90;;
5674;SDS011;2860;54.284;10.158;2024-01-15T07:37:13;5.60;;;2.05;;
5674;SDS011;2860;54.284;10.158;2024-01-15T07:39:38;5.07;;;1.92;;
5674;SDS011;2860;54.284;10.158;2024-01-15T07:42:04;8.77;;;2.83;;
5674;SDS011;2860;54.284;10.158;2024-01-15T07:44:30;7.22;;;1.80;;
5674;SDS011;2860;54.284;10.158;2024-01-15T07:46:55;7.10;;;3.33;;
5674;SDS011;2860;54.284;10.158;2024-01-15T07:49:21;7.88;;;2.92;;
5674;SDS011;2860;54.284;10.158;2024-01-15T07:51:48;7.30;;;1.58;;
5674;SDS011;2860;54.284;10.158;2024-01-15T07:54:14;4.90;;;2.03;;
5674;SDS011;2860;54.284;10.158;2024-01-15T07:56:59;3.53;;;1.73;;
5674;SDS011;2860;54.284;10.158;2024-01-15T07:59:26;5.68;;;1.90;;
5674;SDS011;2860;54.284;10.158;2024-01-15T08:01:52;3.70;;;1.10;;
5674;SDS011;2860;54.284;10.158;2024-01-15T08:04:18;2.67;;;1.33;;
5674;SDS011;2860;54.284;10.158;2024-01-15T08:06:44;8.98;;;2.38;;
5674;SDS011;2860;54.284;10.158;2024-01-15T08:09:10;4.10;;;1.55;;
5674;SDS011;2860;54.284;10.158;2024-01-15T08:11:38;3.42;;;1.60;;
5674;SDS011;2860;54.284;10.158;2024-01-15T08:14:06;4.82;;;1.42;;
5674;SDS011;2860;54.284;10.158;2024-01-15T08:16:32;4.75;;;1.10;;
5674;SDS011;2860;54.284;10.158;2024-01-15T08:18:57;1.20;;;1.10;;
5674;SDS011;2860;54.284;10.158;2024-01-15T08:21:23;9.00;;;1.55;;
5674;SDS011;2860;54.284;10.158;2024-01-15T08:23:48;4.00;;;1.02;;
5674;SDS011;2860;54.284;10.158;2024-01-15T08:26:14;5.68;;;1.13;;
5674;SDS011;2860;54.284;10.158;2024-01-15T08:28:39;3.28;;;1.52;;
5674;SDS011;2860;54.284;10.158;2024-01-15T08:31:05;8.85;;;1.48;;
5674;SDS011;2860;54.284;10.158;2024-01-15T08:33:30;7.28;;;1.38;;
5674;SDS011;2860;54.284;10.158;2024-01-15T08:35:56;4.95;;;1.52;;
5674;SDS011;2860;54.284;10.158;2024-01-15T08:38:21;4.22;;;1.63;;
5674;SDS011;2860;54.284;10.158;2024-01-15T08:40:47;5.95;;;1.40;;
5674;SDS011;2860;54.284;10.158;2024-01-15T08:43:14;3.60;;;1.40;;
5674;SDS011;2860;54.284;10.158;2024-01-15T08:45:39;3.45;;;1.50;;
5674;SDS011;2860;54.284;10.158;2024-01-15T08:48:05;5.38;;;2.08;;
5674;SDS011;2860;54.284;10.158;2024-01-15T08:50:31;5.28;;;1.00;;
5674;SDS011;2860;54.284;10.158;2024-01-15T08:52:57;7.22;;;1.08;;
5674;SDS011;2860;54.284;10.158;2024-01-15T08:55:23;1.60;;;1.13;;
5674;SDS011;2860;54.284;10.158;2024-01-15T08:57:49;2.70;;;1.23;;
5674;SDS011;2860;54.284;10.158;2024-01-15T09:00:15;1.40;;;1.08;;
5674;SDS011;2860;54.284;10.158;2024-01-15T09:02:41;8.93;;;3.08;;
5674;SDS011;2860;54.284;10.158;2024-01-15T09:05:07;1.98;;;1.88;;
5674;SDS011;2860;54.284;10.158;2024-01-15T09:07:33;3.03;;;0.93;;
5674;SDS011;2860;54.284;10.158;2024-01-15T09:09:58;0.93;;;0.93;;
5674;SDS011;2860;54.284;10.158;2024-01-15T09:12:24;4.40;;;1.08;;
5674;SDS011;2860;54.284;10.158;2024-01-15T09:14:50;1.63;;;1.20;;
5674;SDS011;2860;54.284;10.158;2024-01-15T09:17:16;2.65;;;1.73;;
5674;SDS011;2860;54.284;10.158;2024-01-15T09:19:42;2.17;;;0.70;;
5674;SDS011;2860;54.284;10.158;2024-01-15T09:22:09;1.48;;;1.30;;
5674;SDS011;2860;54.284;10.158;2024-01-15T09:24:34;4.80;;;1.40;;
5674;SDS011;2860;54.284;10.158;2024-01-15T09:27:00;2.35;;;1.15;;
5674;SDS011;2860;54.284;10.158;2024-01-15T09:29:26;4.78;;;1.20;;
5674;SDS011;2860;54.284;10.158;2024-01-15T09:31:51;3.45;;;1.40;;
5674;SDS011;2860;54.284;10.158;2024-01-15T09:34:17;4.78;;;1.60;;
5674;SDS011;2860;54.284;10.158;2024-01-15T09:36:43;1.52;;;1.30;;
5674;SDS011;2860;54.284;10.158;2024-01-15T09:39:08;1.48;;;1.38;;
5674;SDS011;2860;54.284;10.158;2024-01-15T09:41:36;1.67;;;1.35;;
5674;SDS011;2860;54.284;10.158;2024-01-15T09:44:02;3.85;;;1.73;;
5674;SDS011;2860;54.284;10.158;2024-01-15T09:46:28;5.18;;;1.75;;
5674;SDS011;2860;54.284;10.158;2024-01-15T09:48:55;3.03;;;1.25;;
5674;SDS011;2860;54.284;10.158;2024-01-15T09:51:42;1.25;;;1.20;;
5674;SDS011;2860;54.284;10.158;2024-01-15T09:54:08;2.42;;;1.13;;
5674;SDS011;2860;54.284;10.158;2024-01-15T09:56:34;1.85;;;1.08;;
5674;SDS011;2860;54.284;10.158;2024-01-15T09:59:01;2.15;;;1.42;;
5674;SDS011;2860;54.284;10.158;2024-01-15T10:01:29;2.08;;;0.90;;
5674;SDS011;2860;54.284;10.158;2024-01-15T10:03:57;5.00;;;1.45;;
5674;SDS011;2860;54.284;10.158;2024-01-15T10:06:23;1.15;;;1.15;;
5674;SDS011;2860;54.284;10.158;2024-01-15T10:08:52;5.72;;;1.55;;
5674;SDS011;2860;54.284;10.158;2024-01-15T10:11:19;1.73;;;1.45;;
5674;SDS011;2860;54.284;10.158;2024-01-15T10:13:44;1.65;;;1.20;;
5674;SDS011;2860;54.284;10.158;2024-01-15T10:16:10;9.35;;;1.77;;
5674;SDS011;2860;54.284;10.158;2024-01-15T10:18:36;3.58;;;1.40;;
5674;SDS011;2860;54.284;10.158;2024-01-15T10:21:02;3.85;;;1.73;;
5674;SDS011;2860;54.284;10.158;2024-01-15T10:23:29;1.85;;;0.98;;
5674;SDS011;2860;54.284;10.158;2024-01-15T10:25:57;2.50;;;1.45;;
5674;SDS011;2860;54.284;10.158;2024-01-15T10:28:22;3.30;;;1.10;;
5674;SDS011;2860;54.284;10.158;2024-01-15T10:30:52;2.30;;;1.90;;
5674;SDS011;2860;54.284;10.158;2024-01-15T10:33:21;4.93;;;2.33;;
5674;SDS011;2860;54.284;10.158;2024-01-15T10:35:50;3.13;;;1.30;;
5674;SDS011;2860;54.284;10.158;2024-01-15T10:38:20;1.42;;;1.30;;
5674;SDS011;2860;54.284;10.158;2024-01-15T10:40:47;2.60;;;1.55;;
5674;SDS011;2860;54.284;10.158;2024-01-15T10:43:16;6.53;;;1.00;;
5674;SDS011;2860;54.284;10.158;2024-01-15T10:45:43;2.92;;;1.52;;
5674;SDS011;2860;54.284;10.158;2024-01-15T10:48:12;9.40;;;1.80;;
5674;SDS011;2860;54.284;10.158;2024-01-15T10:50:38;2.45;;;0.93;;
5674;SDS011;2860;54.284;10.158;2024-01-15T10:53:04;4.40;;;1.80;;
5674;SDS011;2860;54.284;10.158;2024-01-15T10:55:30;1.63;;;1.35;;
5674;SDS011;2860;54.284;10.158;2024-01-15T10:57:57;1.35;;;1.30;;
5674;SDS011;2860;54.284;10.158;2024-01-15T11:00:23;3.17;;;1.60;;
5674;SDS011;2860;54.284;10.158;2024-01-15T11:02:50;2.33;;;1.10;;
5674;SDS011;2860;54.284;10.158;2024-01-15T11:05:16;2.80;;;1.75;;
5674;SDS011;2860;54.284;10.158;2024-01-15T11:07:47;2.38;;;1.30;;
5674;SDS011;2860;54.284;10.158;2024-01-15T11:16:13;4.70;;;1.17;;
5674;SDS011;2860;54.284;10.158;2024-01-15T11:18:40;1.23;;;1.00;;
5674;SDS011;2860;54.284;10.158;2024-01-15T11:21:27;2.83;;;1.33;;
5674;SDS011;2860;54.284;10.158;2024-01-15T11:23:55;1.38;;;1.27;;
5674;SDS011;2860;54.284;10.158;2024-01-15T11:26:36;4.88;;;1.02;;
5674;SDS011;2860;54.284;10.158;2024-01-15T11:34:20;1.15;;;1.15;;
5674;SDS011;2860;54.284;10.158;2024-01-15T11:37:06;5.80;;;1.38;;
5674;SDS011;2860;54.284;10.158;2024-01-15T11:41:58;3.75;;;1.48;;
5674;SDS011;2860;54.284;10.158;2024-01-15T11:44:28;6.53;;;0.90;;
5674;SDS011;2860;54.284;10.158;2024-01-15T11:47:00;1.20;;;1.13;;
5674;SDS011;2860;54.284;10.158;2024-01-15T11:52:17;1.52;;;1.38;;
5674;SDS011;2860;54.284;10.158;2024-01-15T11:54:54;3.03;;;1.10;;
5674;SDS011;2860;54.284;10.158;2024-01-15T11:57:33;3.17;;;2.13;;
5674;SDS011;2860;54.284;10.158;2024-01-15T12:00:10;2.60;;;1.65;;
5674;SDS011;2860;54.284;10.158;2024-01-15T12:02:37;1.50;;;1.40;;
5674;SDS011;2860;54.284;10.158;2024-01-15T12:05:13;3.88;;;1.38;;
5674;SDS011;2860;54.284;10.158;2024-01-15T12:07:43;1.00;;;0.98;;
5674;SDS011;2860;54.284;10.158;2024-01-15T12:10:11;1.02;;;1.02;;
5674;SDS011;2860;54.284;10.158;2024-01-15T12:12:46;2.15;;;1.20;;
5674;SDS011;2860;54.284;10.158;2024-01-15T12:15:25;6.30;;;1.15;;
5674;SDS011;2860;54.284;10.158;2024-01-15T12:17:56;2.85;;;1.30;;
5674;SDS011;2860;54.284;10.158;2024-01-15T12:20:27;1.95;;;1.73;;
5674;SDS011;2860;54.284;10.158;2024-01-15T12:22:53;1.70;;;1.60;;
5674;SDS011;2860;54.284;10.158;2024-01-15T12:25:22;1.73;;;1.63;;
5674;SDS011;2860;54.284;10.158;2024-01-15T12:27:49;2.72;;;1.67;;
5674;SDS011;2860;54.284;10.158;2024-01-15T12:30:15;1.98;;;1.85;;
5674;SDS011;2860;54.284;10.158;2024-01-15T12:32:41;1.50;;;1.40;;
5674;SDS011;2860;54.284;10.158;2024-01-15T12:35:07;1.40;;;1.40;;
5674;SDS011;2860;54.284;10.158;2024-01-15T12:37:34;1.40;;;1.40;;
5674;SDS011;2860;54.284;10.158;2024-01-15T12:40:01;1.20;;;1.20;;
5674;SDS011;2860;54.284;10.158;2024-01-15T12:42:27;8.85;;;1.50;;
5674;SDS011;2860;54.284;10.158;2024-01-15T12:44:55;1.52;;;1.42;;
5674;SDS011;2860;54.284;10.158;2024-01-15T12:47:23;3.03;;;1.80;;
5674;SDS011;2860;54.284;10.158;2024-01-15T12:49:51;1.58;;;1.42;;
5674;SDS011;2860;54.284;10.158;2024-01-15T12:52:19;1.50;;;1.50;;
5674;SDS011;2860;54.284;10.158;2024-01-15T12:54:46;6.93;;;1.30;;
5674;SDS011;2860;54.284;10.158;2024-01-15T12:57:13;1.83;;;1.65;;
5674;SDS011;2860;54.284;10.158;2024-01-15T12:59:39;2.20;;;1.20;;
5674;SDS011;2860;54.284;10.158;2024-01-15T13:02:04;1.20;;;1.10;;
5674;SDS011;2860;54.284;10.158;2024-01-15T13:04:30;3.50;;;1.23;;
5674;SDS011;2860;54.284;10.158;2024-01-15T13:06:56;1.45;;;1.45;;
5674;SDS011;2860;54.284;10.158;2024-01-15T13:09:22;1.55;;;1.55;;
5674;SDS011;2860;54.284;10.158;2024-01-15T13:11:47;2.45;;;2.25;;
5674;SDS011;2860;54.284;10.158;2024-01-15T13:14:46;3.15;;;1.90;;
5674;SDS011;2860;54.284;10.158;2024-01-15T13:17:12;2.17;;;1.48;;
5674;SDS011;2860;54.284;10.158;2024-01-15T13:19:39;3.03;;;1.20;;
5674;SDS011;2860;54.284;10.158;2024-01-15T13:22:05;2.08;;;1.10;;
5674;SDS011;2860;54.284;10.158;2024-01-15T13:24:32;4.57;;;1.30;;
5674;SDS011;2860;54.284;10.158;2024-01-15T13:26:57;1.55;;;1.50;;
5674;SDS011;2860;54.284;10.158;2024-01-15T13:29:23;4.28;;;1.00;;
5674;SDS011;2860;54.284;10.158;2024-01-15T13:31:48;1.40;;;1.10;;
5674;SDS011;2860;54.284;10.158;2024-01-15T13:34:14;2.58;;;1.52;;
5674;SDS011;2860;54.284;10.158;2024-01-15T13:36:39;4.85;;;1.33;;
5674;SDS011;2860;54.284;10.158;2024-01-15T13:39:06;5.75;;;1.52;;
5674;SDS011;2860;54.284;10.158;2024-01-15T13:41:34;2.03;;;1.52;;
5674;SDS011;2860;54.284;10.158;2024-01-15T13:44:00;1.60;;;1.52;;
5674;SDS011;2860;54.284;10.158;2024-01-15T13:46:25;1.40;;;1.30;;
5674;SDS011;2860;54.284;10.158;2024-01-15T13:48:54;2.58;;;1.40;;
5674;SDS011;2860;54.284;10.158;2024-01-15T13:51:22;2.83;;;1.73;;
5674;SDS011;2860;54.284;10.158;2024-01-15T13:53:48;1.80;;;1.70;;
5674;SDS011;2860;54.284;10.158;2024-01-15T13:56:15;2.92;;;1.65;;
5674;SDS011;2860;54.284;10.158;2024-01-15T13:58:40;3.25;;;1.40;;
5674;SDS011;2860;54.284;10.158;2024-01-15T14:01:06;2.47;;;1.73;;
5674;SDS011;2860;54.284;10.158;2024-01-15T14:03:32;1.48;;;1.25;;
5674;SDS011;2860;54.284;10.158;2024-01-15T14:05:57;1.25;;;1.23;;
5674;SDS011;2860;54.284;10.158;2024-01-15T14:08:23;2.10;;;1.10;;
5674;SDS011;2860;54.284;10.158;2024-01-15T14:10:49;1.27;;;1.20;;
5674;SDS011;2860;54.284;10.158;2024-01-15T14:13:14;2.03;;;1.83;;
5674;SDS011;2860;54.284;10.158;2024-01-15T14:15:40;4.72;;;1.60;;
5674;SDS011;2860;54.284;10.158;2024-01-15T14:18:05;5.82;;;1.45;;
5674;SDS011;2860;54.284;10.158;2024-01-15T14:20:31;4.35;;;1.70;;
5674;SDS011;2860;54.284;10.158;2024-01-15T14:22:57;4.57;;;2.95;;
5674;SDS011;2860;54.284;10.158;2024-01-15T14:25:23;4.07;;;1.50;;
5674;SDS011;2860;54.284;10.158;2024-01-15T14:27:51;2.25;;;1.90;;
5674;SDS011;2860;54.284;10.158;2024-01-15T14:30:17;1.80;;;1.30;;
5674;SDS011;2860;54.284;10.158;2024-01-15T14:32:43;2.13;;;1.75;;
5674;SDS011;2860;54.284;10.158;2024-01-15T14:35:08;1.25;;;1.20;;
5674;SDS011;2860;54.284;10.158;2024-01-15T14:37:36;1.38;;;1.38;;
5674;SDS011;2860;54.284;10.158;2024-01-15T14:40:02;2.63;;;2.50;;
5674;SDS011;2860;54.284;10.158;2024-01-15T14:42:29;3.17;;;2.17;;
5674;SDS011;2860;54.284;10.158;2024-01-15T14:44:54;3.08;;;1.83;;
5674;SDS011;2860;54.284;10.158;2024-01-15T14:47:20;2.58;;;2.47;;
5674;SDS011;2860;54.284;10.158;2024-01-15T14:49:48;2.58;;;2.22;;
5674;SDS011;2860;54.284;10.158;2024-01-15T14:52:14;3.40;;;1.85;;
5674;SDS011;2860;54.284;10.158;2024-01-15T14:54:40;4.78;;;1.45;;
5674;SDS011;2860;54.284;10.158;2024-01-15T14:57:06;2.03;;;1.85;;
5674;SDS011;2860;54.284;10.158;2024-01-15T14:59:32;1.73;;;1.67;;
5674;SDS011;2860;54.284;10.158;2024-01-15T15:01:57;2.17;;;1.90;;
5674;SDS011;2860;54.284;10.158;2024-01-15T15:04:23;2.22;;;2.13;;
5674;SDS011;2860;54.284;10.158;2024-01-15T15:06:48;3.05;;;2.08;;
5674;SDS011;2860;54.284;10.158;2024-01-15T15:09:15;5.70;;;2.72;;
5674;SDS011;2860;54.284;10.158;2024-01-15T15:11:40;6.88;;;2.40;;